createdAt,value
2017-06-02T00:00:47.969Z,95791.33
2017-06-02T00:03:14.239Z,95799.27
2017-06-02T00:05:42.222Z,95798.39
2017-06-02T00:08:08.469Z,95797.70
2017-06-02T00:10:35.702Z,95800.39
2017-06-02T00:13:03.694Z,95798.89
2017-06-02T00:15:29.950Z,95800.77
2017-06-02T00:17:57.920Z,95797.78
2017-06-02T00:20:24.118Z,95793.70
2017-06-02T00:22:51.127Z,95800.13
2017-06-02T00:25:18.189Z,95794.46
2017-06-02T00:27:44.450Z,95803.15
2017-06-02T00:30:10.760Z,95799.05
2017-06-02T00:32:37.258Z,95799.44
2017-06-02T00:35:03.478Z,95803.23
2017-06-02T00:37:29.758Z,95798.72
2017-06-02T00:39:55.944Z,95791.39
2017-06-02T00:42:22.162Z,95789.92
2017-06-02T00:44:48.634Z,95789.59
2017-06-02T00:47:15.577Z,95790.19
2017-06-02T00:49:42.521Z,95786.45
2017-06-02T00:52:08.786Z,95778.23
2017-06-02T00:54:34.987Z,95784.98
2017-06-02T00:57:01.230Z,95782.33
2017-06-02T00:59:28.214Z,95782.09
2017-06-02T01:01:54.398Z,95781.34
2017-06-02T01:04:20.633Z,95786.58
2017-06-02T01:06:47.698Z,95780.55
2017-06-02T01:09:13.934Z,95775.03
2017-06-02T01:11:40.874Z,95769.80
2017-06-02T01:14:07.190Z,95769.80
2017-06-02T01:16:33.686Z,95765.09
2017-06-02T01:19:00.220Z,95763.42
2017-06-02T01:21:26.514Z,95765.27
2017-06-02T01:23:59.660Z,95764.92
2017-06-02T01:26:26.689Z,95755.91
2017-06-02T01:28:52.973Z,95754.41
2017-06-02T01:31:19.986Z,95749.52
2017-06-02T01:33:46.943Z,95755.19
2017-06-02T01:36:13.158Z,95747.92
2017-06-02T01:38:39.422Z,95743.84
2017-06-02T01:41:06.470Z,95746.59
2017-06-02T01:43:32.698Z,95744.67
2017-06-02T01:45:58.923Z,95746.44
2017-06-02T01:48:25.243Z,95735.05
2017-06-02T01:50:51.479Z,95743.16
2017-06-02T01:53:17.706Z,95737.39
2017-06-02T01:55:43.965Z,95734.23
2017-06-02T01:58:10.199Z,95727.37
2017-06-02T02:00:36.586Z,95724.42
2017-06-02T02:03:02.903Z,95728.17
2017-06-02T02:05:29.213Z,95732.14
2017-06-02T02:07:55.445Z,95732.93
2017-06-02T02:10:21.635Z,95732.39
2017-06-02T02:12:48.718Z,95731.48
2017-06-02T02:15:14.913Z,95722.30
2017-06-02T02:17:41.202Z,95730.19
2017-06-02T02:20:08.446Z,95730.98
2017-06-02T02:22:35.601Z,95728.91
2017-06-02T02:25:01.859Z,95724.82
2017-06-02T02:27:28.894Z,95726.73
2017-06-02T02:29:55.868Z,95723.40
2017-06-02T02:32:22.047Z,95730.68
2017-06-02T02:34:49.343Z,95728.45
2017-06-02T02:37:16.315Z,95718.89
2017-06-02T02:39:42.503Z,95724.14
2017-06-02T02:42:08.774Z,95724.31
2017-06-02T02:44:35.046Z,95727.31
2017-06-02T02:47:01.355Z,95727.31
2017-06-02T02:49:27.545Z,95721.52
2017-06-02T02:51:54.711Z,95727.34
2017-06-02T02:54:21.645Z,95729.19
2017-06-02T02:56:47.910Z,95737.80
2017-06-02T02:59:14.182Z,95733.34
2017-06-02T03:01:41.900Z,95735.61
2017-06-02T03:04:09.146Z,95735.65
2017-06-02T03:06:35.713Z,95725.56
2017-06-02T03:09:01.979Z,95724.82
2017-06-02T03:11:28.973Z,95721.26
2017-06-02T03:13:55.270Z,95723.50
2017-06-02T03:16:21.438Z,95718.25
2017-06-02T03:18:47.673Z,95718.83
2017-06-02T03:21:13.944Z,95723.33
2017-06-02T03:23:40.155Z,95722.69
2017-06-02T03:26:06.497Z,95718.20
2017-06-02T03:28:33.834Z,95713.83
2017-06-02T03:31:00.106Z,95717.58
2017-06-02T03:33:26.325Z,95710.83
2017-06-02T03:35:52.574Z,95709.87
2017-06-02T03:38:20.829Z,95713.66
2017-06-02T03:40:48.714Z,95713.80
2017-06-02T03:43:16.392Z,95711.91
2017-06-02T03:45:44.248Z,95708.84
2017-06-02T03:48:12.867Z,95714.55
2017-06-02T03:50:39.246Z,95717.57
2017-06-02T03:53:05.509Z,95717.57
2017-06-02T03:55:31.713Z,95714.38
2017-06-02T03:57:58.769Z,95709.48
2017-06-02T04:00:24.958Z,95718.47
2017-06-02T04:02:51.157Z,95722.81
2017-06-02T04:05:17.418Z,95724.22
2017-06-02T04:07:43.625Z,95727.42
2017-06-02T04:10:09.914Z,95722.80
2017-06-02T04:12:36.109Z,95722.02
2017-06-02T04:15:02.331Z,95721.73
2017-06-02T04:17:28.583Z,95730.75
2017-06-02T04:19:54.854Z,95730.54
2017-06-02T04:22:21.181Z,95730.66
2017-06-02T04:24:47.449Z,95731.39
2017-06-02T04:27:13.826Z,95727.86
2017-06-02T04:29:40.985Z,95727.48
2017-06-02T04:32:09.217Z,95733.29
2017-06-02T04:34:35.507Z,95736.08
2017-06-02T04:37:02.566Z,95736.19
2017-06-02T04:39:28.849Z,95731.36
2017-06-02T04:41:55.121Z,95732.17
2017-06-02T04:44:21.344Z,95736.83
2017-06-02T04:46:47.605Z,95743.20
2017-06-02T04:49:13.834Z,95738.45
2017-06-02T04:51:40.050Z,95737.49
2017-06-02T04:54:06.330Z,95736.48
2017-06-02T04:56:32.611Z,95736.42
2017-06-02T04:58:58.877Z,95737.47
2017-06-02T05:01:25.098Z,95736.14
2017-06-02T05:03:51.329Z,95728.50
2017-06-02T05:06:17.573Z,95734.77
2017-06-02T05:08:44.536Z,95737.98
2017-06-02T05:11:11.574Z,95742.06
2017-06-02T05:13:37.822Z,95742.07
2017-06-02T05:16:04.255Z,95749.27
2017-06-02T05:18:30.476Z,95754.95
2017-06-02T05:20:56.696Z,95758.05
2017-06-02T05:23:22.982Z,95752.48
2017-06-02T05:25:49.205Z,95761.24
2017-06-02T05:28:15.395Z,95758.72
2017-06-02T05:30:41.683Z,95761.13
2017-06-02T05:33:08.709Z,95761.27
2017-06-02T05:35:34.930Z,95764.50
2017-06-02T05:38:01.190Z,95770.22
2017-06-02T05:40:27.387Z,95766.58
2017-06-02T05:42:55.378Z,95762.97
2017-06-02T05:45:21.685Z,95766.65
2017-06-02T05:47:48.711Z,95769.53
2017-06-02T05:50:14.994Z,95768.31
2017-06-02T05:52:41.401Z,95772.28
2017-06-02T05:55:07.706Z,95767.67
2017-06-02T05:57:33.915Z,95769.53
2017-06-02T06:00:00.189Z,95773.08
2017-06-02T06:02:28.249Z,95776.08
2017-06-02T06:04:55.277Z,95775.39
2017-06-02T06:07:21.593Z,95772.47
2017-06-02T06:09:47.867Z,95778.23
2017-06-02T06:12:14.068Z,95775.47
2017-06-02T06:14:56.082Z,95769.52
2017-06-02T06:17:28.244Z,95772.25
2017-06-02T06:19:54.480Z,95772.54
2017-06-02T06:22:21.433Z,95776.36
2017-06-02T06:24:47.637Z,95772.52
2017-06-02T06:27:13.897Z,95770.30
2017-06-02T06:29:40.211Z,95771.80
2017-06-02T06:32:06.502Z,95770.00
2017-06-02T06:34:33.511Z,95768.39
2017-06-02T06:37:00.517Z,95771.43
2017-06-02T06:39:26.808Z,95768.25
2017-06-02T06:41:53.001Z,95767.90
2017-06-02T06:44:19.490Z,95774.17
2017-06-02T06:46:45.726Z,95767.24
2017-06-02T06:49:12.118Z,95766.23
2017-06-02T06:51:38.408Z,95767.16
2017-06-02T06:54:05.450Z,95770.01
2017-06-02T06:56:32.443Z,95765.70
2017-06-02T06:59:07.235Z,95772.02
2017-06-02T07:01:33.776Z,95770.55
2017-06-02T07:03:59.989Z,95764.09
2017-06-02T07:06:26.227Z,95773.92
2017-06-02T07:08:52.675Z,95771.41
2017-06-02T07:11:18.879Z,95762.19
2017-06-02T07:13:45.050Z,95771.18
2017-06-02T07:16:11.339Z,95767.71
2017-06-02T07:18:37.642Z,95765.63
2017-06-02T07:21:04.637Z,95768.42
2017-06-02T07:23:32.229Z,95769.14
2017-06-02T07:25:59.284Z,95766.52
2017-06-02T07:28:25.521Z,95762.55
2017-06-02T07:30:51.807Z,95765.89
2017-06-02T07:33:18.090Z,95765.75
2017-06-02T07:35:45.041Z,95763.33
2017-06-02T07:38:11.666Z,95760.36
2017-06-02T07:40:45.517Z,95764.09
2017-06-02T07:43:11.825Z,95760.81
2017-06-02T07:45:38.058Z,95767.12
2017-06-02T07:48:04.467Z,95763.09
2017-06-02T07:50:30.947Z,95761.31
2017-06-02T07:52:57.223Z,95757.14
2017-06-02T07:55:23.530Z,95757.91
2017-06-02T07:57:49.769Z,95756.45
2017-06-02T08:00:16.010Z,95758.63
2017-06-02T08:02:42.338Z,95761.20
2017-06-02T08:05:08.609Z,95757.88
2017-06-02T08:07:34.888Z,95752.56
2017-06-02T08:10:01.096Z,95755.91
2017-06-02T08:12:28.115Z,95754.58
2017-06-02T08:14:54.389Z,95752.80
2017-06-02T08:17:20.661Z,95753.52
2017-06-02T08:19:49.107Z,95754.80
2017-06-02T08:22:15.475Z,95753.09
2017-06-02T08:24:41.698Z,95756.15
2017-06-02T08:27:08.129Z,95751.27
2017-06-02T08:29:34.424Z,95751.45
2017-06-02T08:32:01.453Z,95745.94
2017-06-02T08:34:27.878Z,95752.94
2017-06-02T08:36:54.053Z,95750.27
2017-06-02T08:39:20.306Z,95745.16
2017-06-02T08:41:47.680Z,95750.22
2017-06-02T08:44:14.653Z,95743.98
2017-06-02T08:46:41.622Z,95750.92
2017-06-02T08:49:07.839Z,95746.09
2017-06-02T08:51:34.189Z,95741.08
2017-06-02T08:54:00.499Z,95747.22
2017-06-02T08:56:26.766Z,95743.45
2017-06-02T08:58:52.978Z,95737.23
2017-06-02T09:01:19.232Z,95737.59
2017-06-02T09:03:45.658Z,95737.31
2017-06-02T09:06:11.913Z,95728.21
2017-06-02T09:08:38.178Z,95723.05
2017-06-02T09:11:04.496Z,95726.98
2017-06-02T09:13:30.799Z,95729.25
2017-06-02T09:15:57.755Z,95723.58
2017-06-02T09:18:23.953Z,95723.81
2017-06-02T09:20:50.205Z,95721.91
2017-06-02T09:23:16.461Z,95716.19
2017-06-02T09:25:42.683Z,95715.44
2017-06-02T09:28:08.889Z,95717.89
2017-06-02T09:30:35.150Z,95710.42
2017-06-02T09:33:01.783Z,95707.85
2017-06-02T09:35:28.037Z,95720.64
2017-06-02T09:37:54.269Z,95705.23
2017-06-02T09:40:20.518Z,95700.84
2017-06-02T09:42:46.764Z,95705.69
2017-06-02T09:45:13.046Z,95707.22
2017-06-02T09:47:39.351Z,95704.83
2017-06-02T09:50:05.646Z,95718.52
2017-06-02T09:52:31.856Z,95718.31
2017-06-02T09:54:58.161Z,95714.41
2017-06-02T09:57:24.541Z,95711.44
2017-06-02T09:59:50.844Z,95715.83
2017-06-02T10:02:17.318Z,95715.02
2017-06-02T10:04:44.269Z,95712.13
2017-06-02T10:07:10.499Z,95717.33
2017-06-02T10:09:37.458Z,95720.27
2017-06-02T10:12:03.726Z,95716.43
2017-06-02T10:14:30.023Z,95718.45
2017-06-02T10:16:56.296Z,95724.06
2017-06-02T10:19:22.646Z,95720.95
2017-06-02T10:21:48.863Z,95716.42
2017-06-02T10:24:15.882Z,95716.80
2017-06-02T10:26:42.236Z,95715.36
2017-06-02T10:29:09.157Z,95714.42
2017-06-02T10:31:35.526Z,95712.69
2017-06-02T10:34:01.764Z,95712.11
2017-06-02T10:36:27.965Z,95704.78
2017-06-02T10:38:54.963Z,95711.14
2017-06-02T10:41:21.252Z,95717.28
2017-06-02T10:43:47.510Z,95719.31
2017-06-02T10:46:28.657Z,95716.53
2017-06-02T10:48:54.962Z,95719.25
2017-06-02T10:51:21.253Z,95718.91
2017-06-02T10:53:47.487Z,95724.19
2017-06-02T10:56:14.398Z,95719.69
2017-06-02T10:58:40.670Z,95714.03
2017-06-02T11:01:07.655Z,95712.77
2017-06-02T11:03:34.000Z,95710.70
2017-06-02T11:06:00.295Z,95714.88
2017-06-02T11:08:26.554Z,95715.61
2017-06-02T11:10:53.580Z,95712.58
2017-06-02T11:13:19.810Z,95713.23
2017-06-02T11:15:46.098Z,95706.95
2017-06-02T11:18:13.086Z,95705.86
2017-06-02T11:20:39.375Z,95703.89
2017-06-02T11:23:05.698Z,95698.73
2017-06-02T11:25:31.904Z,95703.20
2017-06-02T11:27:58.253Z,95708.41
2017-06-02T11:30:24.471Z,95714.61
2017-06-02T11:32:50.734Z,95717.98
2017-06-02T11:35:16.972Z,95716.30
2017-06-02T11:37:43.177Z,95715.40
2017-06-02T11:40:09.463Z,95730.47
2017-06-02T11:42:35.791Z,95729.77
2017-06-02T11:45:02.074Z,95729.51
2017-06-02T11:47:28.379Z,95731.48
2017-06-02T11:49:54.580Z,95728.18
2017-06-02T11:52:20.789Z,95729.05
2017-06-02T11:54:47.037Z,95720.20
2017-06-02T11:57:13.283Z,95712.94
2017-06-02T11:59:39.496Z,95712.30
2017-06-02T12:02:05.762Z,95709.17
2017-06-02T12:04:32.188Z,95706.34
2017-06-02T12:06:58.398Z,95700.95
2017-06-02T12:09:25.371Z,95703.40
2017-06-02T12:11:51.621Z,95689.31
2017-06-02T12:14:18.629Z,95688.86
2017-06-02T12:16:45.092Z,95688.28
2017-06-02T12:19:11.443Z,95676.11
2017-06-02T12:21:37.657Z,95682.53
2017-06-02T12:24:03.886Z,95671.72
2017-06-02T12:26:31.210Z,95671.69
2017-06-02T12:28:57.477Z,95664.96
2017-06-02T12:31:23.820Z,95664.50
2017-06-02T12:33:50.079Z,95660.53
2017-06-02T12:36:16.329Z,95653.46
2017-06-02T12:38:43.351Z,95649.48
2017-06-02T12:41:09.566Z,95652.34
2017-06-02T12:43:35.847Z,95648.37
2017-06-02T12:46:02.349Z,95646.04
2017-06-02T12:48:29.303Z,95647.93
2017-06-02T12:50:55.533Z,95648.52
2017-06-02T12:53:21.790Z,95640.00
2017-06-02T12:55:48.009Z,95634.37
2017-06-02T12:58:14.231Z,95637.07
2017-06-02T13:00:40.506Z,95635.66
2017-06-02T13:03:06.805Z,95632.48
2017-06-02T13:05:33.065Z,95632.91
2017-06-02T13:07:59.314Z,95634.53
2017-06-02T13:10:25.613Z,95634.30
2017-06-02T13:12:51.810Z,95632.38
2017-06-02T13:15:18.094Z,95632.55
2017-06-02T13:17:44.305Z,95634.48
2017-06-02T13:20:10.525Z,95634.54
2017-06-02T13:22:37.704Z,95643.64
2017-06-02T13:25:03.943Z,95639.22
2017-06-02T13:27:30.176Z,95636.63
2017-06-02T13:29:56.425Z,95636.55
2017-06-02T13:32:22.649Z,95632.11
2017-06-02T13:34:48.893Z,95629.83
2017-06-02T13:37:15.329Z,95625.52
2017-06-02T13:39:41.637Z,95629.17
2017-06-02T13:42:07.907Z,95627.16
2017-06-02T13:44:34.141Z,95624.49
2017-06-02T13:47:01.167Z,95618.07
2017-06-02T13:49:28.133Z,95618.30
2017-06-02T13:51:55.086Z,95627.95
2017-06-02T13:54:22.030Z,95627.14
2017-06-02T13:56:48.295Z,95631.34
2017-06-02T13:59:14.494Z,95631.87
2017-06-02T14:01:40.734Z,95633.00
2017-06-02T14:04:07.014Z,95627.80
2017-06-02T14:06:33.289Z,95626.11
2017-06-02T14:08:59.550Z,95623.95
2017-06-02T14:11:25.981Z,95619.22
2017-06-02T14:13:52.523Z,95614.45
2017-06-02T14:16:19.594Z,95616.43
2017-06-02T14:18:46.043Z,95615.79
2017-06-02T14:21:12.466Z,95605.23
2017-06-02T14:23:38.910Z,95607.48
2017-06-02T14:26:05.150Z,95603.98
2017-06-02T14:28:31.474Z,95605.08
2017-06-02T14:30:57.678Z,95603.30
2017-06-02T14:33:23.934Z,95604.03
2017-06-02T14:35:50.163Z,95596.36
2017-06-02T14:38:16.330Z,95597.23
2017-06-02T14:40:43.142Z,95593.31
2017-06-02T14:43:10.174Z,95594.77
2017-06-02T14:45:36.462Z,95593.78
2017-06-02T14:48:02.785Z,95592.12
2017-06-02T14:50:28.965Z,95582.54
2017-06-02T14:52:55.217Z,95579.00
2017-06-02T14:55:21.477Z,95580.23
2017-06-02T14:57:48.609Z,95577.92
2017-06-02T15:00:14.900Z,95578.83
2017-06-02T15:02:41.226Z,95575.58
2017-06-02T15:05:07.454Z,95563.20
2017-06-02T15:07:33.645Z,95564.52
2017-06-02T15:09:59.910Z,95562.16
2017-06-02T15:12:26.117Z,95559.20
2017-06-02T15:14:52.382Z,95558.16
2017-06-02T15:17:18.625Z,95552.81
2017-06-02T15:19:44.858Z,95553.66
2017-06-02T15:22:11.058Z,95547.10
2017-06-02T15:24:38.231Z,95553.58
2017-06-02T15:27:05.179Z,95545.08
2017-06-02T15:29:31.402Z,95545.34
2017-06-02T15:31:57.721Z,95545.56
2017-06-02T15:34:23.963Z,95541.70
2017-06-02T15:36:50.246Z,95541.78
2017-06-02T15:39:16.489Z,95536.58
2017-06-02T15:41:42.788Z,95531.32
2017-06-02T15:44:09.720Z,95531.69
2017-06-02T15:46:35.997Z,95525.50
2017-06-02T15:49:02.235Z,95527.33
2017-06-02T15:51:28.449Z,95530.02
2017-06-02T15:53:54.704Z,95535.89
2017-06-02T15:56:20.946Z,95531.53
2017-06-02T15:58:47.289Z,95536.58
2017-06-02T16:01:14.065Z,95535.03
2017-06-02T16:03:40.434Z,95533.45
2017-06-02T16:06:06.693Z,95534.52
2017-06-02T16:08:33.615Z,95537.43
2017-06-02T16:10:59.785Z,95538.55
2017-06-02T16:13:26.014Z,95535.57
2017-06-02T16:15:52.197Z,95532.84
2017-06-02T16:18:18.431Z,95528.72
2017-06-02T16:20:44.889Z,95531.62
2017-06-02T16:23:11.126Z,95524.88
2017-06-02T16:25:37.461Z,95525.45
2017-06-02T16:28:03.909Z,95525.98
2017-06-02T16:30:30.142Z,95523.39
2017-06-02T16:32:56.368Z,95516.80
2017-06-02T16:35:22.807Z,95520.28
2017-06-02T16:37:49.054Z,95513.79
2017-06-02T16:40:15.242Z,95515.16
2017-06-02T16:42:41.793Z,95514.72
2017-06-02T16:45:08.858Z,95520.68
2017-06-02T16:47:35.856Z,95518.34
2017-06-02T16:50:02.902Z,95518.45
2017-06-02T16:52:29.243Z,95522.89
2017-06-02T16:54:55.505Z,95516.55
2017-06-02T16:57:21.797Z,95518.37
2017-06-02T16:59:48.022Z,95513.39
2017-06-02T17:02:14.994Z,95518.16
2017-06-02T17:04:46.056Z,95516.14
2017-06-02T17:07:12.473Z,95521.31
2017-06-02T17:09:38.686Z,95523.16
2017-06-02T17:12:04.971Z,95524.19
2017-06-02T17:14:31.137Z,95524.70
2017-06-02T17:16:58.252Z,95523.27
2017-06-02T17:19:24.555Z,95522.02
2017-06-02T17:21:50.749Z,95518.25
2017-06-02T17:24:17.050Z,95518.83
2017-06-02T17:26:43.326Z,95516.61
2017-06-02T17:29:10.353Z,95518.87
2017-06-02T17:31:36.652Z,95519.86
2017-06-02T17:34:04.014Z,95521.59
2017-06-02T17:36:31.078Z,95522.27
2017-06-02T17:38:57.293Z,95525.30
2017-06-02T17:41:23.730Z,95523.73
2017-06-02T17:43:50.661Z,95527.81
2017-06-02T17:46:22.968Z,95533.19
2017-06-02T17:48:50.237Z,95525.28
2017-06-02T17:51:16.441Z,95529.43
2017-06-02T17:53:43.383Z,95531.93
2017-06-02T17:56:09.829Z,95527.13
2017-06-02T17:58:36.095Z,95534.44
2017-06-02T18:01:02.314Z,95537.03
2017-06-02T18:03:28.551Z,95535.08
2017-06-02T18:05:54.818Z,95537.81
2017-06-02T18:08:21.134Z,95537.38
2017-06-02T18:10:47.439Z,95534.38
2017-06-02T18:13:14.522Z,95540.13
2017-06-02T18:15:40.966Z,95530.19
2017-06-02T18:18:22.422Z,95533.27
2017-06-02T18:20:48.666Z,95533.27
2017-06-02T18:23:15.714Z,95543.71
2017-06-02T18:25:42.056Z,95549.72
2017-06-02T18:28:13.162Z,95547.84
2017-06-02T18:30:39.662Z,95552.95
2017-06-02T18:33:05.986Z,95555.09
2017-06-02T18:35:32.346Z,95569.80
2017-06-02T18:37:58.682Z,95569.98
2017-06-02T18:40:24.974Z,95568.42
2017-06-02T18:42:51.270Z,95572.63
2017-06-02T18:45:17.602Z,95575.12
2017-06-02T18:47:43.905Z,95568.88
2017-06-02T18:50:10.147Z,95573.60
2017-06-02T18:52:36.608Z,95570.86
2017-06-02T18:55:02.848Z,95575.55
2017-06-02T18:57:29.115Z,95575.45
2017-06-02T18:59:56.090Z,95577.30
2017-06-02T19:02:23.152Z,95580.13
2017-06-02T19:04:49.417Z,95582.81
2017-06-02T19:07:15.706Z,95586.45
2017-06-02T19:09:41.953Z,95583.76
2017-06-02T19:12:08.368Z,95580.13
2017-06-02T19:14:34.622Z,95587.23
2017-06-02T19:17:00.888Z,95586.48
2017-06-02T19:19:27.205Z,95583.83
2017-06-02T19:21:54.250Z,95591.25
2017-06-02T19:24:20.478Z,95589.55
2017-06-02T19:26:46.691Z,95595.79
2017-06-02T19:29:13.677Z,95593.98
2017-06-02T19:31:40.046Z,95593.12
2017-06-02T19:34:06.330Z,95590.83
2017-06-02T19:36:32.567Z,95593.84
2017-06-02T19:38:58.841Z,95592.16
2017-06-02T19:41:25.146Z,95593.17
2017-06-02T19:43:51.404Z,95590.59
2017-06-02T19:46:17.966Z,95593.49
2017-06-02T19:48:44.290Z,95590.53
2017-06-02T19:51:10.594Z,95589.59
2017-06-02T19:53:36.817Z,95587.77
2017-06-02T19:56:03.082Z,95587.08
2017-06-02T19:58:29.401Z,95590.54
2017-06-02T20:00:55.627Z,95592.61
2017-06-02T20:03:21.878Z,95598.22
2017-06-02T20:05:48.846Z,95589.28
2017-06-02T20:08:15.130Z,95590.54
2017-06-02T20:10:41.362Z,95590.95
2017-06-02T20:13:07.614Z,95592.70
2017-06-02T20:15:33.894Z,95586.22
2017-06-02T20:18:00.103Z,95591.98
2017-06-02T20:20:26.411Z,95582.92
2017-06-02T20:22:52.671Z,95586.63
2017-06-02T20:25:19.021Z,95585.40
2017-06-02T20:27:45.351Z,95585.34
2017-06-02T20:30:11.685Z,95599.11
2017-06-02T20:32:38.018Z,95586.98
2017-06-02T20:35:04.346Z,95594.38
2017-06-02T20:37:31.392Z,95593.42
2017-06-02T20:39:57.667Z,95593.66
2017-06-02T20:42:23.962Z,95591.00
2017-06-02T20:44:50.230Z,95590.70
2017-06-02T20:47:16.574Z,95587.22
2017-06-02T20:49:42.906Z,95589.81
2017-06-02T20:52:09.223Z,95587.30
2017-06-02T20:54:35.446Z,95586.02
2017-06-02T20:57:01.798Z,95595.37
2017-06-02T20:59:28.189Z,95585.59
2017-06-02T21:01:54.473Z,95584.64
2017-06-02T21:04:20.771Z,95580.38
2017-06-02T21:06:47.026Z,95586.21
2017-06-02T21:09:13.257Z,95585.82
2017-06-02T21:11:39.534Z,95587.57
2017-06-02T21:14:05.837Z,95582.25
2017-06-02T21:16:32.070Z,95582.36
2017-06-02T21:18:58.302Z,95580.24
2017-06-02T21:21:24.627Z,95574.15
2017-06-02T21:23:50.984Z,95580.95
2017-06-02T21:26:17.209Z,95575.74
2017-06-02T21:28:43.450Z,95576.11
2017-06-02T21:31:09.702Z,95570.88
2017-06-02T21:33:36.010Z,95567.22
2017-06-02T21:36:12.044Z,95571.81
2017-06-02T21:38:39.547Z,95571.86
2017-06-02T21:41:06.671Z,95564.79
2017-06-02T21:43:32.961Z,95565.04
2017-06-02T21:45:59.259Z,95567.02
2017-06-02T21:48:26.334Z,95563.94
2017-06-02T21:50:52.693Z,95561.03
2017-06-02T21:53:18.985Z,95557.03
2017-06-02T21:55:45.262Z,95565.92
2017-06-02T21:58:11.650Z,95566.15
2017-06-02T22:00:37.885Z,95562.13
2017-06-02T22:03:04.305Z,95566.75
2017-06-02T22:05:30.566Z,95570.59
2017-06-02T22:07:56.791Z,95568.43
2017-06-02T22:10:23.148Z,95570.91
2017-06-02T22:12:50.436Z,95575.44
2017-06-02T22:15:16.713Z,95565.73
2017-06-02T22:17:42.990Z,95568.09
2017-06-02T22:20:10.026Z,95568.86
2017-06-02T22:22:36.347Z,95573.07
2017-06-02T22:25:03.304Z,95572.98
2017-06-02T22:27:30.297Z,95569.11
2017-06-02T22:29:56.586Z,95576.12
2017-06-02T22:32:23.058Z,95567.91
2017-06-02T22:34:50.122Z,95574.54
2017-06-02T22:37:16.398Z,95568.19
2017-06-02T22:39:42.654Z,95584.78
2017-06-02T22:42:09.769Z,95579.73
2017-06-02T22:44:36.087Z,95581.07
2017-06-02T22:47:02.432Z,95582.03
2017-06-02T22:49:28.621Z,95576.25
2017-06-02T22:51:54.843Z,95581.70
2017-06-02T22:54:21.794Z,95569.45
2017-06-02T22:56:48.034Z,95568.70
2017-06-02T22:59:14.325Z,95568.78
2017-06-02T23:01:40.744Z,95569.56
2017-06-02T23:04:07.250Z,95576.92
2017-06-02T23:06:33.521Z,95579.38
2017-06-02T23:08:59.745Z,95575.48
2017-06-02T23:11:26.068Z,95569.07
2017-06-02T23:13:52.384Z,95575.91
2017-06-02T23:16:18.659Z,95574.83
2017-06-02T23:18:45.718Z,95581.00
2017-06-02T23:21:12.003Z,95572.81
2017-06-02T23:23:38.254Z,95571.54
2017-06-02T23:26:04.570Z,95565.64
2017-06-02T23:28:30.806Z,95566.21
2017-06-02T23:30:57.042Z,95565.69
2017-06-02T23:33:23.317Z,95570.73
2017-06-02T23:35:49.642Z,95568.70
2017-06-02T23:38:16.066Z,95569.35
2017-06-02T23:40:43.168Z,95570.37
2017-06-02T23:43:09.521Z,95566.30
2017-06-02T23:45:35.785Z,95564.63
2017-06-02T23:48:02.027Z,95570.45
2017-06-02T23:50:28.266Z,95569.17
2017-06-02T23:52:54.475Z,95566.00
2017-06-02T23:55:20.827Z,95567.49
2017-06-02T23:57:47.917Z,95565.23
